National Weather Service United States Department of Commerce


000
FTPA31 PHFO 091730
TAFSTU
TAF
NSTU 091730Z 0918/1018 11008KT P6SM VCSH FEW020 SCT035 BKN180
FM092100 11010KT P6SM VCSH SCT020 BKN035=


203
SAZS31 NSTU 092006
MTRPPG


METAR NSTU 091950Z 04005KT 9SM -SHRA SCT018 BKN040 BKN100 28/25
A2991 RMK SLP130 T02810245=


METAR Formatted Surface Weather Observation  Issued: 07/09/2020 09:06:01 AM SST

NSTU Observation History

 

Significant Weather Charts